createdAt,value
2023-02-19T00:01:15.913Z,6.70
2023-02-19T00:03:43.425Z,6.70
2023-02-19T00:06:11.480Z,6.60
2023-02-19T00:08:39.682Z,6.55
2023-02-19T00:11:08.823Z,6.57
2023-02-19T00:13:37.096Z,7.18
2023-02-19T00:16:12.702Z,6.53
2023-02-19T00:18:39.309Z,6.75
2023-02-19T00:21:06.299Z,7.00
2023-02-19T00:23:33.115Z,6.35
2023-02-19T00:26:19.022Z,6.93
2023-02-19T00:28:49.648Z,7.10
2023-02-19T00:31:19.933Z,6.80
2023-02-19T00:33:47.398Z,6.70
2023-02-19T00:36:14.222Z,6.63
2023-02-19T00:38:42.424Z,6.85
2023-02-19T00:41:19.903Z,6.82
2023-02-19T00:43:48.185Z,6.43
2023-02-19T00:46:17.508Z,6.82
2023-02-19T00:48:44.452Z,6.10
2023-02-19T00:51:11.722Z,7.13
2023-02-19T00:53:39.008Z,6.10
2023-02-19T00:56:06.550Z,6.65
2023-02-19T00:58:33.748Z,6.55
2023-02-19T01:01:00.870Z,6.85
2023-02-19T01:03:27.814Z,6.75
2023-02-19T01:05:54.714Z,7.43
2023-02-19T01:08:22.043Z,7.88
2023-02-19T01:10:48.513Z,8.05
2023-02-19T01:13:15.264Z,7.72
2023-02-19T01:15:42.086Z,8.30
2023-02-19T01:18:08.821Z,7.65
2023-02-19T01:20:35.530Z,8.40
2023-02-19T01:23:02.097Z,8.18
2023-02-19T01:25:28.595Z,7.47
2023-02-19T01:27:55.271Z,8.30
2023-02-19T01:30:22.518Z,7.95
2023-02-19T01:32:49.074Z,7.97
2023-02-19T01:35:17.568Z,7.93
2023-02-19T01:37:44.003Z,8.65
2023-02-19T01:40:10.709Z,8.25
2023-02-19T01:42:37.221Z,8.07
2023-02-19T01:45:32.378Z,8.55
2023-02-19T01:48:04.864Z,9.02
2023-02-19T01:50:36.145Z,8.85
2023-02-19T01:53:07.385Z,8.32
2023-02-19T01:55:35.302Z,8.43
2023-02-19T01:58:02.901Z,8.88
2023-02-19T02:00:29.930Z,8.40
2023-02-19T02:02:58.025Z,8.98
2023-02-19T02:05:29.768Z,8.30
2023-02-19T02:08:15.732Z,8.88
2023-02-19T02:10:43.277Z,8.30
2023-02-19T02:13:09.989Z,9.32
2023-02-19T02:16:08.698Z,9.57
2023-02-19T02:18:49.926Z,9.18
2023-02-19T02:21:41.584Z,9.25
2023-02-19T02:24:41.760Z,8.98
2023-02-19T02:27:20.750Z,9.38
2023-02-19T02:30:13.529Z,9.45
2023-02-19T02:32:42.473Z,9.48
2023-02-19T02:35:13.333Z,10.07
2023-02-19T02:37:43.642Z,9.75
2023-02-19T02:40:12.034Z,10.00
2023-02-19T02:42:40.025Z,9.95
2023-02-19T02:45:35.407Z,10.93
2023-02-19T02:48:49.435Z,10.18
2023-02-19T02:51:24.982Z,10.70
2023-02-19T02:54:37.298Z,9.75
2023-02-19T02:57:15.077Z,11.05
2023-02-19T02:59:49.183Z,11.02
2023-02-19T03:02:26.017Z,10.75
2023-02-19T03:05:18.017Z,11.30
2023-02-19T03:08:17.118Z,10.93
2023-02-19T03:10:54.561Z,11.25
2023-02-19T03:13:50.944Z,10.15
2023-02-19T03:16:43.007Z,10.85
2023-02-19T03:19:20.159Z,10.73
2023-02-19T03:22:10.072Z,11.27
2023-02-19T03:25:01.681Z,10.98
2023-02-19T03:27:31.986Z,11.95
2023-02-19T03:30:04.404Z,11.60
2023-02-19T03:32:38.338Z,11.65
2023-02-19T03:35:27.354Z,11.75
2023-02-19T03:38:18.755Z,11.20
2023-02-19T03:41:18.896Z,10.98
2023-02-19T03:43:56.375Z,11.63
2023-02-19T03:46:35.428Z,11.13
2023-02-19T03:49:13.942Z,10.50
2023-02-19T03:51:46.006Z,10.68
2023-02-19T03:54:37.991Z,10.88
2023-02-19T03:57:14.158Z,10.95
2023-02-19T03:59:51.980Z,11.07
2023-02-19T04:02:28.252Z,11.02
2023-02-19T04:05:04.915Z,11.48
2023-02-19T04:07:36.972Z,10.82
2023-02-19T04:10:05.455Z,11.77
2023-02-19T04:12:33.944Z,9.30
2023-02-19T04:15:10.237Z,9.18
2023-02-19T04:20:10.052Z,10.60
2023-02-19T04:22:39.084Z,10.05
2023-02-19T04:25:06.188Z,9.35
2023-02-19T04:27:37.298Z,10.30
2023-02-19T04:30:06.234Z,9.82
2023-02-19T04:32:33.034Z,10.27
2023-02-19T04:34:59.710Z,10.82
2023-02-19T04:37:26.211Z,10.65
2023-02-19T04:39:52.724Z,9.38
2023-02-19T04:42:19.370Z,10.05
2023-02-19T04:44:46.090Z,9.32
2023-02-19T04:47:12.614Z,10.35
2023-02-19T04:49:39.149Z,10.00
2023-02-19T04:52:05.587Z,9.55
2023-02-19T04:54:32.012Z,9.68
2023-02-19T04:56:58.743Z,8.80
2023-02-19T04:59:25.637Z,10.23
2023-02-19T05:01:52.332Z,8.43
2023-02-19T05:04:18.907Z,9.38
2023-02-19T05:06:45.621Z,8.25
2023-02-19T05:09:12.156Z,8.70
2023-02-19T05:11:38.818Z,7.57
2023-02-19T05:14:05.524Z,8.65
2023-02-19T05:16:33.055Z,8.13
2023-02-19T05:18:59.596Z,7.60
2023-02-19T05:21:26.051Z,8.27
2023-02-19T05:23:52.499Z,7.38
2023-02-19T05:26:21.654Z,7.65
2023-02-19T05:28:50.580Z,6.80
2023-02-19T05:31:17.612Z,6.35
2023-02-19T05:33:45.897Z,6.40
2023-02-19T05:36:13.827Z,6.13
2023-02-19T05:38:41.226Z,5.90
2023-02-19T05:41:13.509Z,6.15
2023-02-19T05:43:41.473Z,6.28
2023-02-19T05:46:08.902Z,6.30
2023-02-19T05:48:35.469Z,5.88
2023-02-19T05:51:11.087Z,6.60
2023-02-19T05:53:38.701Z,6.50
2023-02-19T05:56:19.893Z,6.28
2023-02-19T05:58:46.515Z,6.32
2023-02-19T06:01:17.645Z,6.22
2023-02-19T06:03:44.222Z,6.65
2023-02-19T06:06:14.376Z,6.65
2023-02-19T06:08:40.959Z,6.53
2023-02-19T06:11:07.527Z,7.70
2023-02-19T06:13:34.441Z,7.82
2023-02-19T06:16:04.529Z,7.55
2023-02-19T06:18:31.090Z,7.53
2023-02-19T06:21:02.183Z,7.00
2023-02-19T06:23:29.710Z,6.25
2023-02-19T06:26:12.698Z,6.47
2023-02-19T06:28:40.966Z,6.60
2023-02-19T06:31:09.372Z,5.55
2023-02-19T06:33:40.511Z,5.78
2023-02-19T06:36:11.467Z,5.65
2023-02-19T06:38:38.189Z,5.50
2023-02-19T06:41:06.243Z,6.32
2023-02-19T06:43:33.853Z,5.38
2023-02-19T06:46:05.745Z,5.75
2023-02-19T06:48:32.910Z,5.13
2023-02-19T06:50:59.508Z,5.38
2023-02-19T06:53:26.524Z,4.57
2023-02-19T06:56:04.998Z,4.78
2023-02-19T06:58:32.308Z,4.93
2023-02-19T07:00:58.941Z,5.38
2023-02-19T07:03:26.481Z,5.43
2023-02-19T07:05:53.902Z,6.78
2023-02-19T07:08:20.643Z,5.65
2023-02-19T07:10:55.753Z,5.50
2023-02-19T07:13:23.170Z,5.35
2023-02-19T07:15:51.998Z,5.25
2023-02-19T07:18:19.327Z,5.63
2023-02-19T07:20:45.961Z,6.32
2023-02-19T07:23:12.362Z,6.30
2023-02-19T07:25:39.557Z,5.45
2023-02-19T07:28:07.528Z,5.55
2023-02-19T07:30:34.293Z,5.57
2023-02-19T07:33:00.989Z,5.93
2023-02-19T07:35:27.571Z,6.65
2023-02-19T07:37:55.439Z,6.03
2023-02-19T07:40:22.064Z,6.63
2023-02-19T07:42:48.702Z,6.15
2023-02-19T07:45:16.798Z,5.60
2023-02-19T07:47:44.116Z,6.30
2023-02-19T07:50:13.704Z,6.78
2023-02-19T07:52:40.459Z,6.20
2023-02-19T07:55:07.064Z,5.85
2023-02-19T07:57:33.756Z,6.00
2023-02-19T08:00:00.475Z,5.35
2023-02-19T08:02:45.727Z,6.25
2023-02-19T08:05:13.422Z,5.88
2023-02-19T08:07:40.686Z,6.20
2023-02-19T08:10:26.799Z,5.90
2023-02-19T08:13:17.258Z,5.78
2023-02-19T08:15:44.376Z,5.80
2023-02-19T08:18:11.900Z,6.00
2023-02-19T08:20:38.805Z,5.32
2023-02-19T08:23:06.148Z,5.40
2023-02-19T08:25:33.690Z,6.65
2023-02-19T08:28:00.960Z,5.40
2023-02-19T08:30:28.813Z,5.85
2023-02-19T08:32:56.180Z,6.20
2023-02-19T08:35:22.743Z,5.45
2023-02-19T08:37:49.258Z,5.70
2023-02-19T08:40:15.965Z,5.93
2023-02-19T08:42:42.833Z,6.55
2023-02-19T08:45:09.538Z,6.20
2023-02-19T08:47:36.486Z,6.63
2023-02-19T08:50:04.961Z,6.60
2023-02-19T08:52:32.041Z,6.30
2023-02-19T08:54:58.882Z,7.20
2023-02-19T08:57:26.510Z,6.07
2023-02-19T08:59:53.543Z,6.68
2023-02-19T09:02:20.121Z,5.72
2023-02-19T09:04:46.802Z,6.15
2023-02-19T09:07:13.642Z,5.57
2023-02-19T09:09:40.682Z,6.05
2023-02-19T09:12:09.551Z,5.97
2023-02-19T09:17:04.407Z,5.70
2023-02-19T09:19:31.451Z,5.22
2023-02-19T09:21:57.957Z,5.80
2023-02-19T09:24:25.281Z,5.15
2023-02-19T09:26:52.998Z,5.85
2023-02-19T09:29:20.493Z,5.80
2023-02-19T09:31:47.233Z,5.45
2023-02-19T09:34:13.879Z,5.93
2023-02-19T09:36:40.338Z,5.30
2023-02-19T09:39:08.780Z,5.63
2023-02-19T09:41:47.782Z,5.38
2023-02-19T09:44:23.753Z,5.00
2023-02-19T09:46:52.794Z,4.97
2023-02-19T09:49:21.411Z,5.60
2023-02-19T09:51:58.655Z,4.78
2023-02-19T09:54:27.770Z,3.95
2023-02-19T09:56:56.549Z,3.58
2023-02-19T10:02:04.450Z,3.70
2023-02-19T10:04:31.066Z,4.15
2023-02-19T10:07:03.268Z,5.05
2023-02-19T10:09:30.906Z,7.13
2023-02-19T10:11:58.898Z,6.63
2023-02-19T10:14:39.769Z,6.70
2023-02-19T10:17:11.007Z,6.00
2023-02-19T10:19:37.533Z,6.60
2023-02-19T10:22:04.682Z,6.45
2023-02-19T10:24:31.689Z,5.80
2023-02-19T10:26:58.137Z,6.90
2023-02-19T10:29:24.673Z,6.50
2023-02-19T10:32:23.766Z,6.45
2023-02-19T10:35:26.150Z,6.32
2023-02-19T10:37:52.952Z,5.25
2023-02-19T10:40:26.694Z,5.28
2023-02-19T10:42:59.172Z,7.43
2023-02-19T10:45:47.824Z,7.53
2023-02-19T10:48:24.758Z,7.88
2023-02-19T10:51:04.743Z,8.65
2023-02-19T10:53:44.196Z,9.05
2023-02-19T10:56:15.033Z,8.65
2023-02-19T10:58:44.780Z,9.57
2023-02-19T11:01:21.746Z,8.23
2023-02-19T11:04:09.575Z,6.72
2023-02-19T11:06:35.937Z,6.68
2023-02-19T11:09:02.364Z,5.80
2023-02-19T11:11:35.630Z,6.22
2023-02-19T11:14:24.896Z,6.72
2023-02-19T11:16:57.006Z,7.43
2023-02-19T11:19:43.699Z,7.28
2023-02-19T11:22:29.559Z,7.75
2023-02-19T11:24:59.557Z,8.30
2023-02-19T11:27:26.410Z,7.38
2023-02-19T11:29:52.799Z,6.95
2023-02-19T11:32:25.586Z,5.80
2023-02-19T11:35:04.414Z,5.63
2023-02-19T11:37:30.880Z,4.70
2023-02-19T11:39:57.275Z,4.13
2023-02-19T11:42:31.283Z,3.20
2023-02-19T11:45:17.085Z,2.60
2023-02-19T11:48:02.501Z,2.65
2023-02-19T11:50:42.772Z,2.30
2023-02-19T11:53:34.357Z,2.50
2023-02-19T11:56:20.750Z,2.30
2023-02-19T11:58:55.560Z,3.42
2023-02-19T12:01:51.129Z,3.45
2023-02-19T12:04:32.743Z,2.40
2023-02-19T12:07:29.629Z,28.42
2023-02-19T12:10:21.210Z,4.10
2023-02-19T12:13:11.008Z,3.78
2023-02-19T12:16:03.646Z,2.80
2023-02-19T12:19:01.457Z,2.95
2023-02-19T12:21:46.992Z,2.67
2023-02-19T12:24:33.088Z,2.58
2023-02-19T12:27:22.669Z,3.30
2023-02-19T12:30:19.934Z,3.47
2023-02-19T12:33:23.285Z,3.60
2023-02-19T12:36:01.926Z,2.83
2023-02-19T12:38:57.686Z,2.75
2023-02-19T12:41:41.041Z,2.67
2023-02-19T12:44:16.997Z,2.70
2023-02-19T12:46:49.074Z,7.68
2023-02-19T12:49:21.550Z,3.58
2023-02-19T12:52:17.006Z,3.08
2023-02-19T12:54:50.765Z,3.92
2023-02-19T12:57:22.915Z,4.97
2023-02-19T12:59:56.022Z,10.02
2023-02-19T13:02:28.233Z,6.28
2023-02-19T13:05:15.204Z,5.05
2023-02-19T13:07:44.370Z,11.38
2023-02-19T13:10:10.678Z,5.20
2023-02-19T13:12:42.023Z,4.30
2023-02-19T13:15:18.718Z,6.15
2023-02-19T13:17:55.331Z,5.78
2023-02-19T13:20:40.936Z,4.57
2023-02-19T13:23:31.858Z,4.50
2023-02-19T13:26:30.573Z,3.55
2023-02-19T13:29:01.736Z,4.35
2023-02-19T13:31:34.198Z,5.60
2023-02-19T13:34:21.981Z,4.35
2023-02-19T13:36:49.399Z,3.83
2023-02-19T13:39:19.534Z,4.13
2023-02-19T13:41:54.460Z,4.50
2023-02-19T13:44:25.384Z,5.03
2023-02-19T13:46:55.312Z,5.15
2023-02-19T13:49:28.071Z,6.32
2023-02-19T13:51:56.668Z,7.03
2023-02-19T13:54:26.731Z,11.40
2023-02-19T13:57:18.162Z,8.95
2023-02-19T13:59:46.242Z,5.97
2023-02-19T14:02:26.442Z,5.78
2023-02-19T14:05:00.062Z,4.80
2023-02-19T14:07:26.393Z,8.05
2023-02-19T14:09:53.470Z,9.35
2023-02-19T14:12:22.543Z,7.63
2023-02-19T14:14:56.404Z,8.10
2023-02-19T14:17:37.171Z,6.88
2023-02-19T14:20:44.782Z,5.60
2023-02-19T14:23:17.211Z,8.07
2023-02-19T14:26:04.146Z,9.88
2023-02-19T14:28:37.560Z,7.13
2023-02-19T14:31:34.317Z,6.57
2023-02-19T14:34:04.933Z,8.93
2023-02-19T14:37:01.053Z,6.05
2023-02-19T14:39:32.664Z,6.95
2023-02-19T14:42:02.878Z,8.80
2023-02-19T14:44:32.185Z,10.07
2023-02-19T14:47:09.295Z,8.60
2023-02-19T14:49:42.585Z,8.45
2023-02-19T14:52:30.517Z,9.57
2023-02-19T14:55:01.442Z,8.30
2023-02-19T14:57:35.666Z,11.70
2023-02-19T15:00:22.142Z,9.25
2023-02-19T15:02:53.042Z,9.73
2023-02-19T15:05:24.574Z,13.75
2023-02-19T15:07:53.574Z,11.80
2023-02-19T15:10:20.186Z,8.88
2023-02-19T15:12:53.381Z,9.10
2023-02-19T15:15:29.527Z,8.75
2023-02-19T15:17:57.935Z,9.18
2023-02-19T15:20:26.605Z,9.60
2023-02-19T15:22:55.067Z,9.32
2023-02-19T15:25:24.232Z,8.65
2023-02-19T15:27:50.853Z,7.47
2023-02-19T15:30:28.327Z,7.80
2023-02-19T15:32:59.727Z,7.93
2023-02-19T15:35:28.621Z,7.78
2023-02-19T15:37:55.392Z,7.75
2023-02-19T15:40:28.115Z,7.50
2023-02-19T15:42:54.693Z,6.18
2023-02-19T15:45:31.451Z,5.75
2023-02-19T15:48:00.822Z,5.40
2023-02-19T15:50:31.026Z,4.97
2023-02-19T15:53:04.464Z,5.25
2023-02-19T15:56:02.394Z,5.00
2023-02-19T15:58:42.567Z,5.68
2023-02-19T16:01:14.624Z,4.70
2023-02-19T16:03:41.927Z,4.28
2023-02-19T16:06:11.159Z,5.45
2023-02-19T16:08:39.498Z,3.83
2023-02-19T16:11:27.530Z,4.68
2023-02-19T16:14:33.005Z,5.43
2023-02-19T16:17:12.872Z,4.10
2023-02-19T16:19:58.436Z,4.30
2023-02-19T16:22:28.493Z,4.60
2023-02-19T16:24:58.213Z,8.50
2023-02-19T16:27:36.340Z,5.10
2023-02-19T16:30:34.011Z,3.75
2023-02-19T16:33:19.149Z,3.58
2023-02-19T16:35:47.947Z,2.38
2023-02-19T16:40:50.913Z,2.35
2023-02-19T16:43:31.284Z,2.20
2023-02-19T16:45:59.602Z,1.98
2023-02-19T16:48:26.333Z,1.88
2023-02-19T16:50:52.967Z,1.83
2023-02-19T16:53:28.782Z,1.50
2023-02-19T16:55:55.368Z,1.40
2023-02-19T16:58:21.836Z,1.60
2023-02-19T17:00:48.239Z,1.58
2023-02-19T17:03:18.796Z,1.65
2023-02-19T17:05:45.557Z,2.13
2023-02-19T17:08:34.615Z,2.50
2023-02-19T17:11:02.930Z,2.63
2023-02-19T17:13:30.944Z,3.38
2023-02-19T17:15:57.836Z,3.40
2023-02-19T17:18:24.508Z,3.60
2023-02-19T17:20:56.759Z,3.40
2023-02-19T17:23:24.532Z,3.53
2023-02-19T17:25:51.342Z,4.28
2023-02-19T17:28:17.930Z,4.57
2023-02-19T17:30:44.333Z,4.45
2023-02-19T17:33:10.680Z,4.43
2023-02-19T17:35:37.112Z,4.95
2023-02-19T17:38:09.359Z,4.88
2023-02-19T17:40:36.775Z,4.90
2023-02-19T17:43:03.177Z,4.70
2023-02-19T17:45:29.824Z,4.97
2023-02-19T17:47:56.204Z,5.32
2023-02-19T17:50:25.601Z,4.80
2023-02-19T17:52:51.944Z,4.10
2023-02-19T17:55:19.529Z,5.63
2023-02-19T17:57:47.095Z,4.82
2023-02-19T18:00:16.027Z,4.30
2023-02-19T18:02:42.493Z,5.05
2023-02-19T18:05:09.076Z,5.25
2023-02-19T18:07:36.030Z,4.55
2023-02-19T18:10:03.397Z,4.35
2023-02-19T18:12:29.768Z,4.40
2023-02-19T18:14:57.203Z,5.00
2023-02-19T18:17:24.426Z,4.50
2023-02-19T18:19:50.950Z,4.47
2023-02-19T18:22:17.418Z,4.65
2023-02-19T18:24:52.131Z,3.88
2023-02-19T18:27:20.214Z,4.18
2023-02-19T18:29:51.797Z,3.67
2023-02-19T18:32:19.517Z,3.50
2023-02-19T18:34:54.348Z,4.25
2023-02-19T18:37:22.468Z,4.13
2023-02-19T18:39:49.018Z,4.53
2023-02-19T18:42:15.828Z,5.13
2023-02-19T18:44:43.481Z,4.82
2023-02-19T18:47:11.384Z,7.30
2023-02-19T18:49:38.424Z,6.18
2023-02-19T18:52:05.001Z,5.60
2023-02-19T18:54:32.199Z,5.35
2023-02-19T18:57:00.541Z,5.43
2023-02-19T18:59:26.962Z,5.32
2023-02-19T19:01:53.363Z,5.70
2023-02-19T19:04:19.755Z,5.90
2023-02-19T19:06:46.143Z,5.70
2023-02-19T19:09:12.800Z,5.13
2023-02-19T19:11:39.278Z,5.47
2023-02-19T19:14:05.681Z,5.70
2023-02-19T19:16:32.063Z,5.07
2023-02-19T19:18:58.696Z,5.32
2023-02-19T19:21:25.313Z,4.70
2023-02-19T19:23:51.746Z,4.78
2023-02-19T19:26:18.187Z,4.45
2023-02-19T19:28:44.790Z,4.53
2023-02-19T19:31:12.611Z,4.05
2023-02-19T19:33:40.243Z,4.07
2023-02-19T19:36:07.501Z,3.78
2023-02-19T19:38:34.044Z,3.45
2023-02-19T19:41:00.734Z,2.92
2023-02-19T19:43:28.769Z,2.75
2023-02-19T19:45:56.029Z,2.70
2023-02-19T19:48:23.546Z,2.50
2023-02-19T19:50:50.375Z,2.30
2023-02-19T19:53:16.878Z,2.13
2023-02-19T19:55:43.265Z,2.22
2023-02-19T19:58:09.698Z,2.40
2023-02-19T20:00:36.079Z,2.35
2023-02-19T20:03:03.758Z,2.80
2023-02-19T20:05:30.205Z,2.47
2023-02-19T20:07:56.563Z,2.72
2023-02-19T20:10:23.001Z,2.63
2023-02-19T20:12:49.470Z,2.50
2023-02-19T20:15:21.703Z,2.25
2023-02-19T20:17:49.389Z,2.05
2023-02-19T20:20:17.939Z,2.17
2023-02-19T20:22:44.691Z,2.13
2023-02-19T20:25:11.343Z,2.20
2023-02-19T20:27:37.758Z,1.70
2023-02-19T20:30:05.985Z,1.63
2023-02-19T20:32:32.622Z,1.80
2023-02-19T20:34:59.007Z,1.88
2023-02-19T20:37:25.485Z,2.00
2023-02-19T20:39:52.091Z,1.88
2023-02-19T20:42:18.462Z,1.95
2023-02-19T20:44:45.081Z,1.60
2023-02-19T20:47:11.468Z,1.40
2023-02-19T20:49:37.812Z,1.70
2023-02-19T20:52:07.358Z,1.48
2023-02-19T20:54:35.239Z,1.75
2023-02-19T20:57:04.175Z,1.63
2023-02-19T20:59:35.200Z,1.70
2023-02-19T21:02:07.960Z,2.15
2023-02-19T21:04:37.329Z,1.48
2023-02-19T21:07:03.770Z,1.55
2023-02-19T21:09:30.302Z,1.70
2023-02-19T21:11:58.358Z,1.50
2023-02-19T21:14:26.478Z,1.80
2023-02-19T21:16:53.616Z,1.88
2023-02-19T21:19:21.433Z,1.90
2023-02-19T21:21:47.883Z,1.95
2023-02-19T21:24:15.570Z,1.75
2023-02-19T21:26:43.240Z,2.17
2023-02-19T21:29:13.824Z,1.80
2023-02-19T21:31:46.122Z,1.85
2023-02-19T21:34:15.118Z,1.77
2023-02-19T21:36:42.139Z,1.48
2023-02-19T21:39:10.102Z,1.60
2023-02-19T21:41:36.560Z,1.55
2023-02-19T21:44:03.476Z,1.50
2023-02-19T21:46:29.869Z,1.95
2023-02-19T21:48:56.647Z,1.48
2023-02-19T21:51:32.521Z,1.70
2023-02-19T21:53:59.031Z,1.70
2023-02-19T21:56:30.864Z,1.70
2023-02-19T21:58:57.812Z,2.30
2023-02-19T22:01:28.296Z,1.90
2023-02-19T22:03:54.939Z,2.58
2023-02-19T22:06:24.220Z,3.30
2023-02-19T22:08:50.585Z,2.72
2023-02-19T22:11:16.942Z,1.50
2023-02-19T22:13:43.568Z,1.60
2023-02-19T22:16:10.407Z,1.50
2023-02-19T22:18:37.072Z,1.30
2023-02-19T22:21:05.131Z,1.73
2023-02-19T22:23:31.582Z,1.50
2023-02-19T22:25:58.076Z,1.30
2023-02-19T22:28:24.430Z,1.30
2023-02-19T22:30:50.866Z,1.23
2023-02-19T22:33:17.379Z,1.23
2023-02-19T22:35:43.716Z,1.35
2023-02-19T22:38:10.144Z,1.30
2023-02-19T22:40:36.506Z,1.23
2023-02-19T22:43:02.878Z,1.48
2023-02-19T22:45:29.370Z,1.45
2023-02-19T22:47:56.184Z,1.30
2023-02-19T22:50:23.018Z,1.20
2023-02-19T22:52:50.089Z,1.20
2023-02-19T22:55:17.130Z,1.10
2023-02-19T22:57:43.498Z,1.20
2023-02-19T23:00:15.960Z,1.23
2023-02-19T23:02:42.353Z,1.67
2023-02-19T23:05:08.699Z,1.20
2023-02-19T23:07:35.073Z,1.50
2023-02-19T23:10:01.434Z,1.55
2023-02-19T23:12:27.796Z,1.42
2023-02-19T23:14:54.158Z,1.58
2023-02-19T23:17:20.551Z,1.30
2023-02-19T23:19:47.533Z,1.75
2023-02-19T23:22:14.104Z,1.55
2023-02-19T23:24:40.444Z,2.10
2023-02-19T23:27:06.874Z,1.38
2023-02-19T23:29:33.224Z,1.80
2023-02-19T23:32:00.251Z,1.92
2023-02-19T23:34:26.708Z,1.95
2023-02-19T23:36:54.198Z,2.10
2023-02-19T23:39:21.716Z,2.78
2023-02-19T23:41:56.409Z,3.05
2023-02-19T23:44:24.622Z,3.10
2023-02-19T23:46:51.975Z,2.85
2023-02-19T23:49:19.214Z,2.72
2023-02-19T23:51:46.086Z,2.90
2023-02-19T23:54:12.804Z,3.40
2023-02-19T23:56:39.310Z,3.85
2023-02-19T23:59:05.974Z,3.88
